createdAt,value
2017-02-01T00:00:31.032Z,89.3
2017-02-01T00:01:36.205Z,89.11
2017-02-01T00:02:42.383Z,89.01
2017-02-01T00:03:47.580Z,89.2
2017-02-01T00:04:53.754Z,89.01
2017-02-01T00:05:58.960Z,89.39
2017-02-01T00:07:05.199Z,89.58
2017-02-01T00:08:10.392Z,89.58
2017-02-01T00:09:16.567Z,89.2
2017-02-01T00:10:20.801Z,89.87
2017-02-01T00:11:26.995Z,89.68
2017-02-01T00:12:33.225Z,89.77
2017-02-01T00:13:39.383Z,89.58
2017-02-01T00:14:44.611Z,89.58
2017-02-01T00:15:49.811Z,89.63
2017-02-01T00:16:56.025Z,89.54
2017-02-01T00:18:02.144Z,89.44
2017-02-01T00:19:07.339Z,89.3
2017-02-01T00:20:11.580Z,89.44
2017-02-01T00:21:17.761Z,89.68
2017-02-01T00:22:22.955Z,89.63
2017-02-01T00:23:27.206Z,89.49
2017-02-01T00:24:32.406Z,89.54
2017-02-01T00:25:37.607Z,89.73
2017-02-01T00:26:42.804Z,89.73
2017-02-01T00:27:47.962Z,89.63
2017-02-01T00:28:53.166Z,89.63
2017-02-01T00:29:59.342Z,89.92
2017-02-01T00:31:04.534Z,90.2
2017-02-01T00:32:09.705Z,90.39
2017-02-01T00:33:13.940Z,90.01
2017-02-01T00:34:19.129Z,89.73
2017-02-01T00:35:25.299Z,90.01
2017-02-01T00:36:30.510Z,90.01
2017-02-01T00:37:34.711Z,90.01
2017-02-01T00:38:39.880Z,90.2
2017-02-01T00:39:46.052Z,90.39
2017-02-01T00:40:51.247Z,90.2
2017-02-01T00:41:56.450Z,90.01
2017-02-01T00:43:00.683Z,90.11
2017-02-01T00:44:06.847Z,90.58
2017-02-01T00:45:13.070Z,90.96
2017-02-01T00:46:19.241Z,90.39
2017-02-01T00:47:25.419Z,90.86
2017-02-01T00:48:31.576Z,90.67
2017-02-01T00:49:37.738Z,90.58
2017-02-01T00:50:43.906Z,90.48
2017-02-01T00:51:49.102Z,90.2
2017-02-01T00:52:54.291Z,90.2
2017-02-01T00:53:58.509Z,90.39
2017-02-01T00:55:04.668Z,90.48
2017-02-01T00:56:09.014Z,90.39
2017-02-01T00:57:14.178Z,90.3
2017-02-01T00:58:19.386Z,90.01
2017-02-01T00:59:24.545Z,90.48
2017-02-01T01:00:28.801Z,90.39
2017-02-01T01:01:32.996Z,90.39
2017-02-01T01:02:38.190Z,90.11
2017-02-01T01:03:43.387Z,90.58
2017-02-01T01:04:49.557Z,90.58
2017-02-01T01:05:55.728Z,90.58
2017-02-01T01:07:00.000Z,90.2
2017-02-01T01:08:06.115Z,90.01
2017-02-01T01:09:11.314Z,90.58
2017-02-01T01:10:16.512Z,90.48
2017-02-01T01:11:22.727Z,90.58
2017-02-01T01:12:26.964Z,90.01
2017-02-01T01:13:32.203Z,90.01
2017-02-01T01:14:37.361Z,90.96
2017-02-01T01:15:42.561Z,89.82
2017-02-01T01:16:47.728Z,90.2
2017-02-01T01:17:52.985Z,90.11
2017-02-01T01:18:59.155Z,90.58
2017-02-01T01:20:02.439Z,90.77
2017-02-01T01:21:07.632Z,90.96
2017-02-01T01:22:13.792Z,90.11
2017-02-01T01:23:19.955Z,90.67
2017-02-01T01:24:26.116Z,90.39
2017-02-01T01:25:32.291Z,90.96
2017-02-01T01:26:37.493Z,90.39
2017-02-01T01:27:42.701Z,90.67
2017-02-01T01:28:48.865Z,90.67
2017-02-01T01:29:55.041Z,90.67
2017-02-01T01:31:00.364Z,90.39
2017-02-01T01:32:05.533Z,90.96
2017-02-01T01:33:11.750Z,90.2
2017-02-01T01:34:17.873Z,90.39
2017-02-01T01:35:24.037Z,90.11
2017-02-01T01:36:29.235Z,90.3
2017-02-01T01:37:33.476Z,90.3
2017-02-01T01:38:38.649Z,90.39
2017-02-01T01:39:44.850Z,90.58
2017-02-01T01:40:50.010Z,90.2
2017-02-01T01:41:56.173Z,90.58
2017-02-01T01:43:02.338Z,90.2
2017-02-01T01:44:06.557Z,90.39
2017-02-01T01:45:12.730Z,90.3
2017-02-01T01:46:15.970Z,90.3
2017-02-01T01:47:21.165Z,90.48
2017-02-01T01:48:27.338Z,90.11
2017-02-01T01:49:32.549Z,90.2
2017-02-01T01:50:37.747Z,90.2
2017-02-01T01:52:50.078Z,90.01
2017-02-01T01:53:56.252Z,90.39
2017-02-01T01:55:02.427Z,90.58
2017-02-01T01:56:07.634Z,90.58
2017-02-01T01:57:12.919Z,90.01
2017-02-01T01:58:17.144Z,90.3
2017-02-01T01:59:22.342Z,90.39
2017-02-01T02:00:26.594Z,90.39
2017-02-01T02:01:32.869Z,90.48
2017-02-01T02:02:38.071Z,90.01
2017-02-01T02:03:43.324Z,90.11
2017-02-01T02:04:47.554Z,90.2
2017-02-01T02:05:53.764Z,90.11
2017-02-01T02:06:59.889Z,89.35
2017-02-01T02:08:03.126Z,90.11
2017-02-01T02:09:09.297Z,90.11
2017-02-01T02:10:14.512Z,90.2
2017-02-01T02:11:18.742Z,90.01
2017-02-01T02:12:23.958Z,90.11
2017-02-01T02:13:29.140Z,90.11
2017-02-01T02:14:34.343Z,89.82
2017-02-01T02:15:38.593Z,90.01
2017-02-01T02:16:44.728Z,89.63
2017-02-01T02:17:50.023Z,89.63
2017-02-01T02:18:56.249Z,89.54
2017-02-01T02:20:02.367Z,89.73
2017-02-01T02:21:06.599Z,89.82
2017-02-01T02:22:10.820Z,89.25
2017-02-01T02:23:17.001Z,89.16
2017-02-01T02:24:23.157Z,89.06
2017-02-01T02:25:28.324Z,89.06
2017-02-01T02:26:34.500Z,89.44
2017-02-01T02:27:40.669Z,89.25
2017-02-01T02:28:45.836Z,89.44
2017-02-01T02:29:51.033Z,89.25
2017-02-01T02:30:55.280Z,89.16
2017-02-01T02:32:00.454Z,89.25
2017-02-01T02:33:05.659Z,89.35
2017-02-01T02:34:08.891Z,89.16
2017-02-01T02:35:15.068Z,88.97
2017-02-01T02:36:20.303Z,88.87
2017-02-01T02:37:25.505Z,89.25
2017-02-01T02:38:31.628Z,89.06
2017-02-01T02:39:36.824Z,89.35
2017-02-01T02:40:42.024Z,89.06
2017-02-01T02:41:46.255Z,89.35
2017-02-01T02:42:52.490Z,89.44
2017-02-01T02:43:57.817Z,89.35
2017-02-01T02:45:03.992Z,89.35
2017-02-01T02:46:08.232Z,89.16
2017-02-01T02:47:13.411Z,89.25
2017-02-01T02:48:18.609Z,89.44
2017-02-01T02:49:23.928Z,88.87
2017-02-01T02:50:30.096Z,89.16
2017-02-01T02:51:35.316Z,89.16
2017-02-01T02:52:40.540Z,89.16
2017-02-01T02:53:46.666Z,89.35
2017-02-01T02:54:51.847Z,89.25
2017-02-01T02:55:58.025Z,89.35
2017-02-01T02:57:02.266Z,88.68
2017-02-01T02:58:07.478Z,89.25
2017-02-01T02:59:12.702Z,88.87
2017-02-01T03:00:17.841Z,88.87
2017-02-01T03:01:23.042Z,88.87
2017-02-01T03:02:29.251Z,89.16
2017-02-01T03:03:34.458Z,88.97
2017-02-01T03:04:40.585Z,89.25
2017-02-01T03:05:46.758Z,89.16
2017-02-01T03:06:51.995Z,89.16
2017-02-01T03:07:58.162Z,88.97
2017-02-01T03:09:04.328Z,88.92
2017-02-01T03:10:10.539Z,88.78
2017-02-01T03:11:15.791Z,88.87
2017-02-01T03:12:21.913Z,88.97
2017-02-01T03:13:27.103Z,88.64
2017-02-01T03:14:31.320Z,88.97
2017-02-01T03:15:36.539Z,88.87
2017-02-01T03:16:41.838Z,88.92
2017-02-01T03:17:48.034Z,89.11
2017-02-01T03:18:53.165Z,88.64
2017-02-01T03:19:58.412Z,89.01
2017-02-01T03:21:04.546Z,88.92
2017-02-01T03:22:08.835Z,88.45
2017-02-01T03:23:14.998Z,89.01
2017-02-01T03:24:20.226Z,88.87
2017-02-01T03:25:25.431Z,88.97
2017-02-01T03:26:31.611Z,88.82
2017-02-01T03:27:36.796Z,88.59
2017-02-01T03:28:43.022Z,88.45
2017-02-01T03:29:49.189Z,88.45
2017-02-01T03:30:55.359Z,89.3
2017-02-01T03:32:01.553Z,88.45
2017-02-01T03:33:06.720Z,89.25
2017-02-01T03:34:09.975Z,89.11
2017-02-01T03:35:15.181Z,89.2
2017-02-01T03:36:20.395Z,88.54
2017-02-01T03:37:26.551Z,89.3
2017-02-01T03:38:32.713Z,89.01
2017-02-01T03:39:37.922Z,88.92
2017-02-01T03:40:43.136Z,88.45
2017-02-01T03:41:48.341Z,89.01
2017-02-01T03:42:53.579Z,88.45
2017-02-01T03:43:58.735Z,88.73
2017-02-01T03:45:03.927Z,88.45
2017-02-01T03:46:10.092Z,88.49
2017-02-01T03:47:15.296Z,88.45
2017-02-01T03:48:21.450Z,88.45
2017-02-01T03:49:26.664Z,89.01
2017-02-01T03:50:32.824Z,89.01
2017-02-01T03:51:39.034Z,88.92
2017-02-01T03:52:44.244Z,88.82
2017-02-01T03:53:50.400Z,89.01
2017-02-01T03:54:54.604Z,88.35
2017-02-01T03:55:59.893Z,88.73
2017-02-01T03:57:04.059Z,88.64
2017-02-01T03:58:10.188Z,88.82
2017-02-01T03:59:16.354Z,88.92
2017-02-01T04:00:22.521Z,88.4
2017-02-01T04:01:27.731Z,88.64
2017-02-01T04:02:33.891Z,88.35
2017-02-01T04:03:39.081Z,88.73
2017-02-01T04:04:45.258Z,88.45
2017-02-01T04:05:51.474Z,88.73
2017-02-01T04:06:57.646Z,88.35
2017-02-01T04:08:03.856Z,88.35
2017-02-01T04:09:09.049Z,88.35
2017-02-01T04:10:15.206Z,87.98
2017-02-01T04:11:20.411Z,88.17
2017-02-01T04:12:26.572Z,87.78
2017-02-01T04:13:32.879Z,87.98
2017-02-01T04:14:37.079Z,87.78
2017-02-01T04:15:42.309Z,87.98
2017-02-01T04:16:47.481Z,87.88
2017-02-01T04:17:53.652Z,87.78
2017-02-01T04:18:59.816Z,87.88
2017-02-01T04:20:05.023Z,87.78
2017-02-01T04:21:11.187Z,87.78
2017-02-01T04:22:16.356Z,87.5
2017-02-01T04:23:22.518Z,87.98
2017-02-01T04:24:28.685Z,88.07
2017-02-01T04:25:34.894Z,88.17
2017-02-01T04:26:40.096Z,88.07
2017-02-01T04:27:46.291Z,87.98
2017-02-01T04:28:52.445Z,87.98
2017-02-01T04:29:56.671Z,87.88
2017-02-01T04:31:01.958Z,87.88
2017-02-01T04:32:06.163Z,87.59
2017-02-01T04:33:10.360Z,87.5
2017-02-01T04:34:15.559Z,87.59
2017-02-01T04:35:21.718Z,87.69
2017-02-01T04:36:27.873Z,87.21
2017-02-01T04:37:32.223Z,87.4
2017-02-01T04:38:38.341Z,87.69
2017-02-01T04:39:43.594Z,87.69
2017-02-01T04:40:46.824Z,87.5
2017-02-01T04:41:52.007Z,87.78
2017-02-01T04:42:57.200Z,87.5
2017-02-01T04:44:01.471Z,87.12
2017-02-01T04:45:07.598Z,87.31
2017-02-01T04:46:13.770Z,87.12
2017-02-01T04:47:18.925Z,87.21
2017-02-01T04:48:24.117Z,87.12
2017-02-01T04:49:29.318Z,87.12
2017-02-01T04:50:34.484Z,87.02
2017-02-01T04:51:40.651Z,86.46
2017-02-01T04:52:45.848Z,86.74
2017-02-01T04:53:51.057Z,86.93
2017-02-01T04:54:56.233Z,87.12
2017-02-01T04:56:02.432Z,86.74
2017-02-01T04:57:07.631Z,86.93
2017-02-01T04:58:11.861Z,86.74
2017-02-01T04:59:17.057Z,86.93
2017-02-01T05:00:23.214Z,86.83
2017-02-01T05:01:29.382Z,86.74
2017-02-01T05:02:34.551Z,87.12
2017-02-01T05:03:38.818Z,87.02
2017-02-01T05:04:44.015Z,86.83
2017-02-01T05:05:48.311Z,86.93
2017-02-01T05:06:54.479Z,86.65
2017-02-01T05:07:59.643Z,86.74
2017-02-01T05:09:01.974Z,87.31
2017-02-01T05:10:05.205Z,87.31
2017-02-01T05:11:10.437Z,86.93
2017-02-01T05:12:15.613Z,87.02
2017-02-01T05:13:20.797Z,87.12
2017-02-01T05:14:26.994Z,86.36
2017-02-01T05:15:33.167Z,86.27
2017-02-01T05:16:39.325Z,87.12
2017-02-01T05:17:44.510Z,86.83
2017-02-01T05:18:50.689Z,86.93
2017-02-01T05:19:56.851Z,87.02
2017-02-01T05:21:02.059Z,86.74
2017-02-01T05:22:06.299Z,86.55
2017-02-01T05:23:12.439Z,87.12
2017-02-01T05:24:18.597Z,86.93
2017-02-01T05:25:21.934Z,86.93
2017-02-01T05:26:27.118Z,86.18
2017-02-01T05:27:33.272Z,86.08
2017-02-01T05:28:38.473Z,85.99
2017-02-01T05:29:43.673Z,85.7
2017-02-01T05:30:49.831Z,86.08
2017-02-01T05:31:54.084Z,86.36
2017-02-01T05:33:00.278Z,86.27
2017-02-01T05:34:06.408Z,86.27
2017-02-01T05:35:12.645Z,86.46
2017-02-01T05:36:17.839Z,86.27
2017-02-01T05:37:22.048Z,86.27
2017-02-01T05:38:26.292Z,86.65
2017-02-01T05:39:32.417Z,86.27
2017-02-01T05:40:36.639Z,86.46
2017-02-01T05:41:42.799Z,86.83
2017-02-01T05:42:48.003Z,87.02
2017-02-01T05:43:54.220Z,86.93
2017-02-01T05:45:00.398Z,86.83
2017-02-01T05:46:05.617Z,86.74
2017-02-01T05:47:11.760Z,86.27
2017-02-01T05:48:17.926Z,85.99
2017-02-01T05:49:24.094Z,86.18
2017-02-01T05:50:29.297Z,86.27
2017-02-01T05:51:35.474Z,86.36
2017-02-01T05:52:39.688Z,86.18
2017-02-01T05:53:45.842Z,86.27
2017-02-01T05:54:52.015Z,86.46
2017-02-01T05:55:58.178Z,86.27
2017-02-01T05:57:03.359Z,86.27
2017-02-01T05:58:08.590Z,86.36
2017-02-01T05:59:14.732Z,86.36
2017-02-01T06:00:20.891Z,85.8
2017-02-01T06:01:27.067Z,85.7
2017-02-01T06:02:33.240Z,85.7
2017-02-01T06:03:37.493Z,85.89
2017-02-01T06:04:42.689Z,86.27
2017-02-01T06:05:47.881Z,86.27
2017-02-01T06:06:53.061Z,86.36
2017-02-01T06:07:57.256Z,86.27
2017-02-01T06:09:01.496Z,86.55
2017-02-01T06:10:07.802Z,86.08
2017-02-01T06:11:11.937Z,86.46
2017-02-01T06:12:18.102Z,86.27
2017-02-01T06:13:23.300Z,86.36
2017-02-01T06:14:29.491Z,86.46
2017-02-01T06:15:35.657Z,86.55
2017-02-01T06:16:39.908Z,85.89
2017-02-01T06:17:46.067Z,86.36
2017-02-01T06:18:50.269Z,85.51
2017-02-01T06:19:56.429Z,85.51
2017-02-01T06:21:01.700Z,85.32
2017-02-01T06:22:07.864Z,84.94
2017-02-01T06:23:13.063Z,85.8
2017-02-01T06:24:19.227Z,85.7
2017-02-01T06:25:24.478Z,85.7
2017-02-01T06:26:29.682Z,85.8
2017-02-01T06:27:35.861Z,85.7
2017-02-01T06:28:42.024Z,85.89
2017-02-01T06:29:47.219Z,85.7
2017-02-01T06:30:52.420Z,85.32
2017-02-01T06:31:58.603Z,85.23
2017-02-01T06:33:04.768Z,85.7
2017-02-01T06:34:09.961Z,85.61
2017-02-01T06:35:13.317Z,84.66
2017-02-01T06:36:18.605Z,85.23
2017-02-01T06:37:23.940Z,84.85
2017-02-01T06:38:29.134Z,85.13
2017-02-01T06:39:34.335Z,85.32
2017-02-01T06:40:39.539Z,85.23
2017-02-01T06:41:44.736Z,85.61
2017-02-01T06:42:50.907Z,85.61
2017-02-01T06:43:56.112Z,85.23
2017-02-01T06:45:01.305Z,85.51
2017-02-01T06:46:06.500Z,85.04
2017-02-01T06:47:11.720Z,84.94
2017-02-01T06:48:16.906Z,84.94
2017-02-01T06:49:22.108Z,85.04
2017-02-01T06:50:28.306Z,84.85
2017-02-01T06:51:34.476Z,84.85
2017-02-01T06:52:39.672Z,85.04
2017-02-01T06:53:45.840Z,84.94
2017-02-01T06:54:50.137Z,85.04
2017-02-01T06:55:55.499Z,85.13
2017-02-01T06:57:00.695Z,85.23
2017-02-01T06:58:05.894Z,84.94
2017-02-01T06:59:10.113Z,84.75
2017-02-01T07:00:16.266Z,85.23
2017-02-01T07:01:22.431Z,84.56
2017-02-01T07:02:27.649Z,84.66
2017-02-01T07:03:33.809Z,84.66
2017-02-01T07:04:39.011Z,85.23
2017-02-01T07:05:44.210Z,84.56
2017-02-01T07:06:50.375Z,84.56
2017-02-01T07:07:56.548Z,84.66
2017-02-01T07:09:02.710Z,85.04
2017-02-01T07:10:08.918Z,84.56
2017-02-01T07:11:15.044Z,84.56
2017-02-01T07:12:20.235Z,84.56
2017-02-01T07:13:26.404Z,84.66
2017-02-01T07:14:29.679Z,84.66
2017-02-01T07:15:35.837Z,84.38
2017-02-01T07:16:42.008Z,84.56
2017-02-01T07:17:47.161Z,84.09
2017-02-01T07:18:53.344Z,84.09
2017-02-01T07:19:59.505Z,84.09
2017-02-01T07:21:05.697Z,84.09
2017-02-01T07:22:09.954Z,84.38
2017-02-01T07:23:16.127Z,84.75
2017-02-01T07:24:20.336Z,84.47
2017-02-01T07:25:26.521Z,84.66
2017-02-01T07:26:32.773Z,84.47
2017-02-01T07:27:36.972Z,84.19
2017-02-01T07:28:42.263Z,83.71
2017-02-01T07:29:48.438Z,83.33
2017-02-01T07:30:53.734Z,83.33
2017-02-01T07:31:59.902Z,83.81
2017-02-01T07:33:05.101Z,83.81
2017-02-01T07:34:11.275Z,83.9
2017-02-01T07:35:14.508Z,83.24
2017-02-01T07:36:20.674Z,83.9
2017-02-01T07:37:25.939Z,83.52
2017-02-01T07:38:31.084Z,83.05
2017-02-01T07:39:37.257Z,83.52
2017-02-01T07:40:41.496Z,83.43
2017-02-01T07:41:47.783Z,83.14
2017-02-01T07:42:52.048Z,82.86
2017-02-01T07:43:55.248Z,82.76
2017-02-01T07:44:58.480Z,82.95
2017-02-01T07:46:03.689Z,82.86
2017-02-01T07:47:08.903Z,82.95
2017-02-01T07:48:14.099Z,82.86
2017-02-01T07:49:19.305Z,83.14
2017-02-01T07:50:25.478Z,83.05
2017-02-01T07:51:29.698Z,82.76
2017-02-01T07:52:35.855Z,83.14
2017-02-01T07:53:41.130Z,82.86
2017-02-01T07:54:46.330Z,82.57
2017-02-01T07:55:51.567Z,83.14
2017-02-01T07:56:55.774Z,82.86
2017-02-01T07:58:01.939Z,82.48
2017-02-01T07:59:08.098Z,82.67
2017-02-01T08:00:14.258Z,82.67
2017-02-01T08:01:20.423Z,82.67
2017-02-01T08:02:26.595Z,82.67
2017-02-01T08:03:31.816Z,82.86
2017-02-01T08:04:37.973Z,82.57
2017-02-01T08:05:44.137Z,82.57
2017-02-01T08:06:50.332Z,82.76
2017-02-01T08:07:56.467Z,82.86
2017-02-01T08:09:02.690Z,82.86
2017-02-01T08:10:07.922Z,83.24
2017-02-01T08:11:12.153Z,82.57
2017-02-01T08:12:18.289Z,82.57
2017-02-01T08:13:23.495Z,82.76
2017-02-01T08:14:29.675Z,82.57
2017-02-01T08:15:35.858Z,82.29
2017-02-01T08:16:42.141Z,81.92
2017-02-01T08:17:46.278Z,82.67
2017-02-01T08:18:50.492Z,82.57
2017-02-01T08:19:54.733Z,82.67
2017-02-01T08:21:00.912Z,82.86
2017-02-01T08:22:05.111Z,82.57
2017-02-01T08:23:10.314Z,82.39
2017-02-01T08:24:16.478Z,82.39
2017-02-01T08:25:19.741Z,82.1
2017-02-01T08:26:24.916Z,82.67
2017-02-01T08:27:31.094Z,82.76
2017-02-01T08:28:36.308Z,82.67
2017-02-01T08:29:42.473Z,82.76
2017-02-01T08:30:48.646Z,82.29
2017-02-01T08:31:54.864Z,82.57
2017-02-01T08:33:00.064Z,82.1
2017-02-01T08:34:06.253Z,82.57
2017-02-01T08:35:10.496Z,82.86
2017-02-01T08:36:16.678Z,82.76
2017-02-01T08:37:21.861Z,82.67
2017-02-01T08:38:27.060Z,82.1
2017-02-01T08:39:31.269Z,82.95
2017-02-01T08:40:35.483Z,82.76
2017-02-01T08:41:40.691Z,82.67
2017-02-01T08:42:45.894Z,82.95
2017-02-01T08:43:51.097Z,82.2
2017-02-01T08:44:56.392Z,82.39
2017-02-01T08:46:02.643Z,82.1
2017-02-01T08:47:07.806Z,82.48
2017-02-01T08:48:13.005Z,82.86
2017-02-01T08:49:19.210Z,82.39
2017-02-01T08:50:24.394Z,82.01
2017-02-01T08:51:29.593Z,82.1
2017-02-01T08:52:33.787Z,82.01
2017-02-01T08:53:38.091Z,81.92
2017-02-01T08:54:43.268Z,81.72
2017-02-01T08:55:47.502Z,82.1
2017-02-01T08:56:52.688Z,82.1
2017-02-01T08:57:58.857Z,82.1
2017-02-01T08:59:05.022Z,82.1
2017-02-01T09:00:10.201Z,82.39
2017-02-01T09:01:15.361Z,82.39
2017-02-01T09:02:20.573Z,81.72
2017-02-01T09:03:25.761Z,81.72
2017-02-01T09:04:30.997Z,81.82
2017-02-01T09:05:37.127Z,82.2
2017-02-01T09:06:43.300Z,81.82
2017-02-01T09:07:48.551Z,81.92
2017-02-01T09:08:53.863Z,81.92
2017-02-01T09:09:59.061Z,81.63
2017-02-01T09:11:05.222Z,81.15
2017-02-01T09:12:10.431Z,81.44
2017-02-01T09:13:14.660Z,80.87
2017-02-01T09:14:18.876Z,81.25
2017-02-01T09:15:24.095Z,81.63
2017-02-01T09:16:30.249Z,81.01
2017-02-01T09:17:36.424Z,80.91
2017-02-01T09:18:42.663Z,81.38
2017-02-01T09:19:48.837Z,80.91
2017-02-01T09:20:53.086Z,80.91
2017-02-01T09:21:59.254Z,80.44
2017-02-01T09:23:04.463Z,80.72
2017-02-01T09:24:10.627Z,80.82
2017-02-01T09:25:16.808Z,80.72
2017-02-01T09:26:21.976Z,80.72
2017-02-01T09:27:26.209Z,80.44
2017-02-01T09:28:32.539Z,80.44
2017-02-01T09:29:37.804Z,80.72
2017-02-01T09:30:43.920Z,80.06
2017-02-01T09:31:50.121Z,80.82
2017-02-01T09:32:55.276Z,80.91
2017-02-01T09:34:00.488Z,80.06
2017-02-01T09:35:05.695Z,80.53
2017-02-01T09:36:08.093Z,80.44
2017-02-01T09:37:13.241Z,80.34
2017-02-01T09:38:19.399Z,80.44
2017-02-01T09:39:23.611Z,80.15
2017-02-01T09:40:28.808Z,80.44
2017-02-01T09:41:34.983Z,80.15
2017-02-01T09:42:41.158Z,80.53
2017-02-01T09:43:46.355Z,80.44
2017-02-01T09:44:52.519Z,80.82
2017-02-01T09:45:58.679Z,80.63
2017-02-01T09:47:03.903Z,80.63
2017-02-01T09:48:09.069Z,80.63
2017-02-01T09:49:15.234Z,80.53
2017-02-01T09:50:21.405Z,80.63
2017-02-01T09:51:26.601Z,80.53
2017-02-01T09:52:30.812Z,80.44
2017-02-01T09:53:36.178Z,80.34
2017-02-01T09:54:42.312Z,80.06
2017-02-01T09:55:48.539Z,80.25
2017-02-01T09:56:52.755Z,79.58
2017-02-01T09:57:56.993Z,79.87
2017-02-01T09:59:03.212Z,79.77
2017-02-01T10:00:08.405Z,79.96
2017-02-01T10:01:14.579Z,79.96
2017-02-01T10:02:18.850Z,79.3
2017-02-01T10:03:23.132Z,79.3
2017-02-01T10:04:27.361Z,78.83
2017-02-01T10:05:33.529Z,78.73
2017-02-01T10:06:38.697Z,78.77
2017-02-01T10:07:43.965Z,78.77
2017-02-01T10:08:47.200Z,78.07
2017-02-01T10:09:52.495Z,78.07
2017-02-01T10:10:58.624Z,77.73
2017-02-01T10:12:02.867Z,77.92
2017-02-01T10:13:09.127Z,77.73
2017-02-01T10:14:15.296Z,78.39
2017-02-01T10:15:20.502Z,78.49
2017-02-01T10:16:26.677Z,78.11
2017-02-01T10:17:31.982Z,77.88
2017-02-01T10:18:37.079Z,78.49
2017-02-01T10:19:41.315Z,78.11
2017-02-01T10:20:47.487Z,78.11
2017-02-01T10:21:52.730Z,78.02
2017-02-01T10:22:58.894Z,78.39
2017-02-01T10:24:04.189Z,78.49
2017-02-01T10:25:08.387Z,78.2
2017-02-01T10:26:14.549Z,77.92
2017-02-01T10:27:20.715Z,77.45
2017-02-01T10:28:26.878Z,76.97
2017-02-01T10:29:33.052Z,76.97
2017-02-01T10:30:38.296Z,76.5
2017-02-01T10:31:43.453Z,76.87
2017-02-01T10:32:48.650Z,76.97
2017-02-01T10:33:54.816Z,76.87
2017-02-01T10:34:58.060Z,76.4
2017-02-01T10:36:03.228Z,76.4
2017-02-01T10:37:08.497Z,76.4
2017-02-01T10:38:13.715Z,76.03
2017-02-01T10:39:19.883Z,76.03
2017-02-01T10:40:25.088Z,75.55
2017-02-01T10:41:30.317Z,75.84
2017-02-01T10:42:36.479Z,75.93
2017-02-01T10:43:41.648Z,75.87
2017-02-01T10:44:47.818Z,75.84
2017-02-01T10:45:53.025Z,75.84
2017-02-01T10:46:59.178Z,75.74
2017-02-01T10:48:04.435Z,76.59
2017-02-01T10:49:10.606Z,76.03
2017-02-01T10:50:16.783Z,76.68
2017-02-01T10:51:22.964Z,76.44
2017-02-01T10:52:28.164Z,75.78
2017-02-01T10:53:33.362Z,75.49
2017-02-01T10:54:37.574Z,75.21
2017-02-01T10:55:42.813Z,74.73
2017-02-01T10:56:48.166Z,74.73
2017-02-01T10:57:53.298Z,74.26
2017-02-01T10:58:58.501Z,74.26
2017-02-01T11:00:04.659Z,74.64
2017-02-01T11:01:10.834Z,74.54
2017-02-01T11:02:15.073Z,73.69
2017-02-01T11:03:20.289Z,74.07
2017-02-01T11:04:26.458Z,73.88
2017-02-01T11:05:32.623Z,74.07
2017-02-01T11:06:38.874Z,74.16
2017-02-01T11:07:45.055Z,73.97
2017-02-01T11:08:50.229Z,73.97
2017-02-01T11:09:56.459Z,73.6
2017-02-01T11:11:01.669Z,73.12
2017-02-01T11:12:07.839Z,73.41
2017-02-01T11:13:14.005Z,73.12
2017-02-01T11:14:18.212Z,73.22
2017-02-01T11:15:24.381Z,73.12
2017-02-01T11:16:30.585Z,73.12
2017-02-01T11:17:36.751Z,73.69
2017-02-01T11:18:42.919Z,73.41
2017-02-01T11:19:49.124Z,73.22
2017-02-01T11:20:55.274Z,73.07
2017-02-01T11:22:00.517Z,72.59
2017-02-01T11:23:05.708Z,72.88
2017-02-01T11:24:10.924Z,72.21
2017-02-01T11:25:16.094Z,71.92
2017-02-01T11:26:21.304Z,71.64
2017-02-01T11:27:27.472Z,72.11
2017-02-01T11:28:31.680Z,71.45
2017-02-01T11:29:37.877Z,70.88
2017-02-01T11:30:43.040Z,71.17
2017-02-01T11:31:49.218Z,71.36
2017-02-01T11:32:55.390Z,71.92
2017-02-01T11:33:59.632Z,71.73
2017-02-01T11:35:04.875Z,71.55
2017-02-01T11:36:11.151Z,71.64
2017-02-01T11:37:15.355Z,72.21
2017-02-01T11:38:19.558Z,71.73
2017-02-01T11:39:24.764Z,71.45
2017-02-01T11:40:30.936Z,71.07
2017-02-01T11:41:36.154Z,72.02
2017-02-01T11:42:41.318Z,71.73
2017-02-01T11:43:44.600Z,72.02
2017-02-01T11:44:50.719Z,71.64
2017-02-01T11:45:55.936Z,71.17
2017-02-01T11:47:01.144Z,71.01
2017-02-01T11:48:06.351Z,70.44
2017-02-01T11:49:11.551Z,69.96
2017-02-01T11:50:16.782Z,69.96
2017-02-01T11:51:21.961Z,70.15
2017-02-01T11:52:27.133Z,69.87
2017-02-01T11:53:33.311Z,69.96
2017-02-01T11:54:38.512Z,69.59
2017-02-01T11:55:43.701Z,69.59
2017-02-01T11:56:49.866Z,69.49
2017-02-01T11:57:56.035Z,69.68
2017-02-01T11:59:01.227Z,69.78
2017-02-01T12:00:06.443Z,69.78
2017-02-01T12:01:10.648Z,69.78
2017-02-01T12:02:16.818Z,70.15
2017-02-01T12:03:22.979Z,69.96
2017-02-01T12:04:28.193Z,70.06
2017-02-01T12:05:34.364Z,69.96
2017-02-01T12:06:37.728Z,70.63
2017-02-01T12:07:43.889Z,70.54
2017-02-01T12:08:48.218Z,69.96
2017-02-01T12:09:54.512Z,69.96
2017-02-01T12:11:00.672Z,69.78
2017-02-01T12:12:04.864Z,69.96
2017-02-01T12:13:11.120Z,70.06
2017-02-01T12:14:15.322Z,70.35
2017-02-01T12:15:20.531Z,70.63
2017-02-01T12:16:26.752Z,71.11
2017-02-01T12:17:32.058Z,71.2
2017-02-01T12:18:38.255Z,71.3
2017-02-01T12:19:44.379Z,71.96
2017-02-01T12:20:49.578Z,71.77
2017-02-01T12:21:53.787Z,71.58
2017-02-01T12:22:58.978Z,72.21
2017-02-01T12:24:05.159Z,71.83
2017-02-01T12:25:11.342Z,72.21
2017-02-01T12:26:16.542Z,71.64
2017-02-01T12:27:22.718Z,71.73
2017-02-01T12:28:27.929Z,72.3
2017-02-01T12:29:34.098Z,72.3
2017-02-01T12:30:39.299Z,72.3
2017-02-01T12:31:44.498Z,72.11
2017-02-01T12:32:49.704Z,72.4
2017-02-01T12:33:53.911Z,71.92
2017-02-01T12:34:59.203Z,72.3
2017-02-01T12:36:05.374Z,72.21
2017-02-01T12:37:10.605Z,72.3
2017-02-01T12:38:15.797Z,71.73
2017-02-01T12:39:22.002Z,72.68
2017-02-01T12:40:27.180Z,73.16
2017-02-01T12:41:33.374Z,73.16
2017-02-01T12:42:38.575Z,73.92
2017-02-01T12:43:43.841Z,74.11
2017-02-01T12:44:50.007Z,74.3
2017-02-01T12:45:56.183Z,74.35
2017-02-01T12:47:02.353Z,74.92
2017-02-01T12:48:07.566Z,75.02
2017-02-01T12:49:11.798Z,75.02
2017-02-01T12:50:17.082Z,75.11
2017-02-01T12:51:22.298Z,75.31
2017-02-01T12:52:27.498Z,74.92
2017-02-01T12:53:33.678Z,75.02
2017-02-01T12:54:39.859Z,75.02
2017-02-01T12:55:46.034Z,75.4
2017-02-01T12:56:52.204Z,75.49
2017-02-01T12:57:57.404Z,75.31
2017-02-01T12:59:02.638Z,75.31
2017-02-01T13:00:08.828Z,75.49
2017-02-01T13:01:14.942Z,75.62
2017-02-01T13:02:21.140Z,75.05
2017-02-01T13:03:26.333Z,75.24
2017-02-01T13:04:31.564Z,75.31
2017-02-01T13:05:36.772Z,75.21
2017-02-01T13:06:42.941Z,75.4
2017-02-01T13:07:47.174Z,75.11
2017-02-01T13:08:52.459Z,75.4
2017-02-01T13:09:56.695Z,75.21
2017-02-01T13:11:02.874Z,75.4
2017-02-01T13:12:08.078Z,75.59
2017-02-01T13:13:12.304Z,75.78
2017-02-01T13:14:18.476Z,75.78
2017-02-01T13:15:22.756Z,75.31
2017-02-01T13:16:27.308Z,75.78
2017-02-01T13:17:32.508Z,75.68
2017-02-01T13:18:36.709Z,75.11
2017-02-01T13:19:41.963Z,75.21
2017-02-01T13:20:48.092Z,75.4
2017-02-01T13:21:53.510Z,75.59
2017-02-01T13:22:57.735Z,76.15
2017-02-01T13:24:03.902Z,76.01
2017-02-01T13:25:09.099Z,75.87
2017-02-01T13:26:15.284Z,76.34
2017-02-01T13:27:20.563Z,76.06
2017-02-01T13:28:25.773Z,76.01
2017-02-01T13:29:30.943Z,76.01
2017-02-01T13:30:37.115Z,76.1
2017-02-01T13:31:42.315Z,75.91
2017-02-01T13:32:48.497Z,75.91
2017-02-01T13:33:53.698Z,75.34
2017-02-01T13:34:58.903Z,75.24
2017-02-01T13:36:04.103Z,75.43
2017-02-01T13:37:10.277Z,75.24
2017-02-01T13:38:15.467Z,75.15
2017-02-01T13:39:19.697Z,75.34
2017-02-01T13:40:24.879Z,75.72
2017-02-01T13:41:31.048Z,76.01
2017-02-01T13:42:36.244Z,75.91
2017-02-01T13:43:42.411Z,75.72
2017-02-01T13:44:47.596Z,75.91
2017-02-01T13:45:50.832Z,75.72
2017-02-01T13:46:56.141Z,75.91
2017-02-01T13:48:02.303Z,75.24
2017-02-01T13:49:07.496Z,75.24
2017-02-01T13:50:12.702Z,75.34
2017-02-01T13:51:16.932Z,75.34
2017-02-01T13:52:21.162Z,75.53
2017-02-01T13:53:27.329Z,75.15
2017-02-01T13:54:32.530Z,75.34
2017-02-01T13:55:37.723Z,75.53
2017-02-01T13:56:43.895Z,75.34
2017-02-01T13:57:49.094Z,75.24
2017-02-01T13:58:52.319Z,75.15
2017-02-01T13:59:57.521Z,75.43
2017-02-01T14:01:03.723Z,75.62
2017-02-01T14:02:08.887Z,75.24
2017-02-01T14:03:14.079Z,75.05
2017-02-01T14:04:20.266Z,74.77
2017-02-01T14:05:26.427Z,74.96
2017-02-01T14:06:32.649Z,74.58